sensor_id;sensor_type;location;lat;lon;timestamp;P1;durP1;ratioP1;P2;durP2;ratioP2
40955;SDS011;26687;48.254;11.454;2022-11-12T00:01:25;14.15;;;6.70;;
40955;SDS011;26687;48.254;11.454;2022-11-12T00:04:25;14.27;;;6.33;;
40955;SDS011;26687;48.254;11.454;2022-11-12T00:07:26;19.75;;;6.28;;
40955;SDS011;26687;48.254;11.454;2022-11-12T00:10:26;17.17;;;6.97;;
40955;SDS011;26687;48.254;11.454;2022-11-12T00:13:26;9.70;;;6.23;;
40955;SDS011;26687;48.254;11.454;2022-11-12T00:16:26;10.90;;;6.65;;
40955;SDS011;26687;48.254;11.454;2022-11-12T00:19:26;10.55;;;6.28;;
40955;SDS011;26687;48.254;11.454;2022-11-12T00:22:26;23.88;;;6.82;;
40955;SDS011;26687;48.254;11.454;2022-11-12T00:25:27;15.98;;;6.75;;
40955;SDS011;26687;48.254;11.454;2022-11-12T00:28:27;14.18;;;6.35;;
40955;SDS011;26687;48.254;11.454;2022-11-12T00:31:27;11.83;;;6.17;;
40955;SDS011;26687;48.254;11.454;2022-11-12T00:34:27;15.57;;;6.97;;
40955;SDS011;26687;48.254;11.454;2022-11-12T00:37:28;20.13;;;6.83;;
40955;SDS011;26687;48.254;11.454;2022-11-12T00:40:28;12.40;;;5.80;;
40955;SDS011;26687;48.254;11.454;2022-11-12T00:43:28;10.10;;;6.30;;
40955;SDS011;26687;48.254;11.454;2022-11-12T00:46:29;13.07;;;6.53;;
40955;SDS011;26687;48.254;11.454;2022-11-12T00:49:29;15.50;;;6.90;;
40955;SDS011;26687;48.254;11.454;2022-11-12T00:52:29;11.77;;;6.30;;
40955;SDS011;26687;48.254;11.454;2022-11-12T00:55:29;14.35;;;6.88;;
40955;SDS011;26687;48.254;11.454;2022-11-12T00:58:30;12.90;;;6.22;;
40955;SDS011;26687;48.254;11.454;2022-11-12T01:01:30;12.18;;;5.97;;
40955;SDS011;26687;48.254;11.454;2022-11-12T01:04:31;14.48;;;6.40;;
40955;SDS011;26687;48.254;11.454;2022-11-12T01:07:31;28.07;;;6.57;;
40955;SDS011;26687;48.254;11.454;2022-11-12T01:10:31;36.13;;;6.30;;
40955;SDS011;26687;48.254;11.454;2022-11-12T01:13:33;23.58;;;5.47;;
40955;SDS011;26687;48.254;11.454;2022-11-12T01:16:35;27.37;;;5.37;;
40955;SDS011;26687;48.254;11.454;2022-11-12T01:19:35;25.52;;;4.90;;
40955;SDS011;26687;48.254;11.454;2022-11-12T01:22:36;15.02;;;4.88;;
40955;SDS011;26687;48.254;11.454;2022-11-12T01:25:36;28.70;;;5.32;;
40955;SDS011;26687;48.254;11.454;2022-11-12T01:28:37;11.32;;;5.20;;
40955;SDS011;26687;48.254;11.454;2022-11-12T01:31:37;9.68;;;4.85;;
40955;SDS011;26687;48.254;11.454;2022-11-12T01:34:38;21.03;;;5.20;;
40955;SDS011;26687;48.254;11.454;2022-11-12T01:37:38;11.88;;;5.20;;
40955;SDS011;26687;48.254;11.454;2022-11-12T01:40:38;9.90;;;5.18;;
40955;SDS011;26687;48.254;11.454;2022-11-12T01:43:38;12.65;;;5.30;;
40955;SDS011;26687;48.254;11.454;2022-11-12T01:53:05;15.13;;;4.97;;
40955;SDS011;26687;48.254;11.454;2022-11-12T01:56:07;10.93;;;5.50;;
40955;SDS011;26687;48.254;11.454;2022-11-12T01:59:10;15.50;;;6.00;;
40955;SDS011;26687;48.254;11.454;2022-11-12T02:02:12;16.50;;;5.53;;
40955;SDS011;26687;48.254;11.454;2022-11-12T02:05:12;14.80;;;5.97;;
40955;SDS011;26687;48.254;11.454;2022-11-12T02:08:13;7.40;;;4.97;;
40955;SDS011;26687;48.254;11.454;2022-11-12T02:11:15;10.90;;;6.07;;
40955;SDS011;26687;48.254;11.454;2022-11-12T02:14:15;10.75;;;5.10;;
40955;SDS011;26687;48.254;11.454;2022-11-12T02:17:16;7.53;;;5.80;;
40955;SDS011;26687;48.254;11.454;2022-11-12T02:20:16;5.38;;;4.93;;
40955;SDS011;26687;48.254;11.454;2022-11-12T02:23:16;5.73;;;5.23;;
40955;SDS011;26687;48.254;11.454;2022-11-12T02:26:16;11.63;;;5.63;;
40955;SDS011;26687;48.254;11.454;2022-11-12T02:29:16;10.55;;;5.20;;
40955;SDS011;26687;48.254;11.454;2022-11-12T02:32:17;7.15;;;5.43;;
40955;SDS011;26687;48.254;11.454;2022-11-12T02:35:17;9.00;;;5.40;;
40955;SDS011;26687;48.254;11.454;2022-11-12T02:38:17;10.63;;;5.63;;
40955;SDS011;26687;48.254;11.454;2022-11-12T02:41:17;6.95;;;6.05;;
40955;SDS011;26687;48.254;11.454;2022-11-12T02:44:17;6.57;;;6.00;;
40955;SDS011;26687;48.254;11.454;2022-11-12T02:47:18;9.82;;;6.20;;
40955;SDS011;26687;48.254;11.454;2022-11-12T02:50:18;6.93;;;5.88;;
40955;SDS011;26687;48.254;11.454;2022-11-12T02:53:18;7.05;;;5.88;;
40955;SDS011;26687;48.254;11.454;2022-11-12T02:56:18;7.10;;;6.20;;
40955;SDS011;26687;48.254;11.454;2022-11-12T02:59:18;11.88;;;6.10;;
40955;SDS011;26687;48.254;11.454;2022-11-12T03:02:19;7.65;;;5.85;;
40955;SDS011;26687;48.254;11.454;2022-11-12T03:05:19;7.78;;;5.80;;
40955;SDS011;26687;48.254;11.454;2022-11-12T03:08:19;7.07;;;5.50;;
40955;SDS011;26687;48.254;11.454;2022-11-12T03:11:19;6.70;;;6.00;;
40955;SDS011;26687;48.254;11.454;2022-11-12T03:14:19;8.38;;;6.22;;
40955;SDS011;26687;48.254;11.454;2022-11-12T03:17:19;13.27;;;6.57;;
40955;SDS011;26687;48.254;11.454;2022-11-12T03:20:20;8.50;;;6.15;;
40955;SDS011;26687;48.254;11.454;2022-11-12T03:23:20;7.57;;;6.05;;
40955;SDS011;26687;48.254;11.454;2022-11-12T03:26:20;7.95;;;6.25;;
40955;SDS011;26687;48.254;11.454;2022-11-12T03:29:20;8.05;;;6.53;;
40955;SDS011;26687;48.254;11.454;2022-11-12T03:32:20;7.38;;;6.68;;
40955;SDS011;26687;48.254;11.454;2022-11-12T03:35:21;9.37;;;6.17;;
40955;SDS011;26687;48.254;11.454;2022-11-12T03:38:21;9.32;;;6.43;;
40955;SDS011;26687;48.254;11.454;2022-11-12T03:41:21;10.35;;;5.90;;
40955;SDS011;26687;48.254;11.454;2022-11-12T03:44:21;9.00;;;6.25;;
40955;SDS011;26687;48.254;11.454;2022-11-12T03:47:22;8.80;;;5.78;;
40955;SDS011;26687;48.254;11.454;2022-11-12T03:50:23;12.32;;;5.95;;
40955;SDS011;26687;48.254;11.454;2022-11-12T03:53:23;8.65;;;6.38;;
40955;SDS011;26687;48.254;11.454;2022-11-12T03:56:24;27.15;;;7.05;;
40955;SDS011;26687;48.254;11.454;2022-11-12T03:59:24;10.32;;;6.07;;
40955;SDS011;26687;48.254;11.454;2022-11-12T04:02:24;7.10;;;6.37;;
40955;SDS011;26687;48.254;11.454;2022-11-12T04:05:25;13.07;;;6.47;;
40955;SDS011;26687;48.254;11.454;2022-11-12T04:08:45;11.23;;;6.18;;
40955;SDS011;26687;48.254;11.454;2022-11-12T04:11:45;7.80;;;6.22;;
40955;SDS011;26687;48.254;11.454;2022-11-12T04:14:45;6.13;;;5.63;;
40955;SDS011;26687;48.254;11.454;2022-11-12T04:17:45;6.18;;;5.68;;
40955;SDS011;26687;48.254;11.454;2022-11-12T04:21:04;5.95;;;5.45;;
40955;SDS011;26687;48.254;11.454;2022-11-12T04:24:33;5.88;;;5.28;;
40955;SDS011;26687;48.254;11.454;2022-11-12T04:27:51;8.65;;;5.30;;
40955;SDS011;26687;48.254;11.454;2022-11-12T04:30:52;10.60;;;5.35;;
40955;SDS011;26687;48.254;11.454;2022-11-12T04:33:52;8.80;;;5.43;;
40955;SDS011;26687;48.254;11.454;2022-11-12T04:36:52;5.23;;;4.83;;
40955;SDS011;26687;48.254;11.454;2022-11-12T04:39:52;4.90;;;4.40;;
40955;SDS011;26687;48.254;11.454;2022-11-12T04:42:52;5.18;;;3.85;;
40955;SDS011;26687;48.254;11.454;2022-11-12T04:46:11;5.65;;;4.90;;
40955;SDS011;26687;48.254;11.454;2022-11-12T04:49:11;11.23;;;4.75;;
40955;SDS011;26687;48.254;11.454;2022-11-12T04:52:11;6.63;;;4.65;;
40955;SDS011;26687;48.254;11.454;2022-11-12T04:55:12;12.93;;;5.10;;
40955;SDS011;26687;48.254;11.454;2022-11-12T04:58:12;6.67;;;4.53;;
40955;SDS011;26687;48.254;11.454;2022-11-12T05:01:12;7.53;;;5.13;;
40955;SDS011;26687;48.254;11.454;2022-11-12T05:04:12;13.17;;;4.57;;
40955;SDS011;26687;48.254;11.454;2022-11-12T05:07:13;5.25;;;4.70;;
40955;SDS011;26687;48.254;11.454;2022-11-12T05:10:13;4.28;;;3.97;;
40955;SDS011;26687;48.254;11.454;2022-11-12T05:13:13;5.17;;;4.67;;
40955;SDS011;26687;48.254;11.454;2022-11-12T05:16:13;4.90;;;4.13;;
40955;SDS011;26687;48.254;11.454;2022-11-12T05:19:14;8.97;;;4.80;;
40955;SDS011;26687;48.254;11.454;2022-11-12T05:22:14;14.45;;;4.78;;
40955;SDS011;26687;48.254;11.454;2022-11-12T05:25:14;9.35;;;4.90;;
40955;SDS011;26687;48.254;11.454;2022-11-12T05:28:14;8.55;;;5.07;;
40955;SDS011;26687;48.254;11.454;2022-11-12T05:31:14;14.95;;;5.53;;
40955;SDS011;26687;48.254;11.454;2022-11-12T05:34:15;5.50;;;4.70;;
40955;SDS011;26687;48.254;11.454;2022-11-12T05:37:15;9.13;;;4.65;;
40955;SDS011;26687;48.254;11.454;2022-11-12T05:40:15;14.52;;;5.10;;
40955;SDS011;26687;48.254;11.454;2022-11-12T05:43:15;9.93;;;4.70;;
40955;SDS011;26687;48.254;11.454;2022-11-12T05:46:16;5.78;;;4.95;;
40955;SDS011;26687;48.254;11.454;2022-11-12T05:49:16;8.77;;;5.72;;
40955;SDS011;26687;48.254;11.454;2022-11-12T05:52:16;6.22;;;5.22;;
40955;SDS011;26687;48.254;11.454;2022-11-12T05:55:17;7.00;;;4.55;;
40955;SDS011;26687;48.254;11.454;2022-11-12T05:58:17;5.97;;;4.50;;
40955;SDS011;26687;48.254;11.454;2022-11-12T06:01:17;4.47;;;4.07;;
40955;SDS011;26687;48.254;11.454;2022-11-12T06:04:18;4.15;;;3.85;;
40955;SDS011;26687;48.254;11.454;2022-11-12T06:07:18;4.53;;;4.13;;
40955;SDS011;26687;48.254;11.454;2022-11-12T06:10:18;4.18;;;3.88;;
40955;SDS011;26687;48.254;11.454;2022-11-12T06:13:19;5.47;;;4.00;;
40955;SDS011;26687;48.254;11.454;2022-11-12T06:16:19;5.22;;;4.80;;
40955;SDS011;26687;48.254;11.454;2022-11-12T06:19:20;4.10;;;3.80;;
40955;SDS011;26687;48.254;11.454;2022-11-12T06:22:20;5.20;;;4.15;;
40955;SDS011;26687;48.254;11.454;2022-11-12T06:25:20;6.73;;;4.37;;
40955;SDS011;26687;48.254;11.454;2022-11-12T06:28:20;4.88;;;3.80;;
40955;SDS011;26687;48.254;11.454;2022-11-12T06:31:20;5.03;;;4.15;;
40955;SDS011;26687;48.254;11.454;2022-11-12T06:34:21;4.88;;;4.47;;
40955;SDS011;26687;48.254;11.454;2022-11-12T06:37:21;4.97;;;4.30;;
40955;SDS011;26687;48.254;11.454;2022-11-12T06:40:21;11.10;;;4.93;;
40955;SDS011;26687;48.254;11.454;2022-11-12T06:43:22;5.05;;;4.25;;
40955;SDS011;26687;48.254;11.454;2022-11-12T06:46:22;8.20;;;4.43;;
40955;SDS011;26687;48.254;11.454;2022-11-12T06:49:22;4.90;;;4.43;;
40955;SDS011;26687;48.254;11.454;2022-11-12T06:52:22;5.47;;;4.53;;
40955;SDS011;26687;48.254;11.454;2022-11-12T06:55:23;10.17;;;4.97;;
40955;SDS011;26687;48.254;11.454;2022-11-12T06:58:23;6.15;;;5.32;;
40955;SDS011;26687;48.254;11.454;2022-11-12T07:01:23;5.83;;;5.07;;
40955;SDS011;26687;48.254;11.454;2022-11-12T07:04:23;7.07;;;5.90;;
40955;SDS011;26687;48.254;11.454;2022-11-12T07:07:24;7.13;;;6.47;;
40955;SDS011;26687;48.254;11.454;2022-11-12T07:10:24;9.38;;;6.55;;
40955;SDS011;26687;48.254;11.454;2022-11-12T07:13:24;7.43;;;6.73;;
40955;SDS011;26687;48.254;11.454;2022-11-12T07:16:24;7.82;;;7.13;;
40955;SDS011;26687;48.254;11.454;2022-11-12T07:19:25;5.95;;;5.45;;
40955;SDS011;26687;48.254;11.454;2022-11-12T07:22:25;13.10;;;7.07;;
40955;SDS011;26687;48.254;11.454;2022-11-12T07:25:25;10.95;;;7.43;;
40955;SDS011;26687;48.254;11.454;2022-11-12T07:28:25;9.63;;;6.60;;
40955;SDS011;26687;48.254;11.454;2022-11-12T07:31:25;7.82;;;6.10;;
40955;SDS011;26687;48.254;11.454;2022-11-12T07:34:26;7.97;;;6.47;;
40955;SDS011;26687;48.254;11.454;2022-11-12T07:37:26;13.02;;;6.30;;
40955;SDS011;26687;48.254;11.454;2022-11-12T07:40:26;13.27;;;5.83;;
40955;SDS011;26687;48.254;11.454;2022-11-12T07:43:27;9.15;;;6.00;;
40955;SDS011;26687;48.254;11.454;2022-11-12T07:46:27;6.25;;;5.65;;
40955;SDS011;26687;48.254;11.454;2022-11-12T07:49:28;8.20;;;5.47;;
40955;SDS011;26687;48.254;11.454;2022-11-12T07:52:28;10.00;;;5.80;;
40955;SDS011;26687;48.254;11.454;2022-11-12T07:55:30;8.10;;;5.03;;
40955;SDS011;26687;48.254;11.454;2022-11-12T07:58:31;5.85;;;4.78;;
40955;SDS011;26687;48.254;11.454;2022-11-12T08:01:35;6.90;;;4.90;;
40955;SDS011;26687;48.254;11.454;2022-11-12T08:04:36;13.73;;;5.18;;
40955;SDS011;26687;48.254;11.454;2022-11-12T08:07:36;20.70;;;6.60;;
40955;SDS011;26687;48.254;11.454;2022-11-12T08:10:37;6.10;;;5.33;;
40955;SDS011;26687;48.254;11.454;2022-11-12T08:13:37;5.85;;;5.35;;
40955;SDS011;26687;48.254;11.454;2022-11-12T08:16:37;7.33;;;5.83;;
40955;SDS011;26687;48.254;11.454;2022-11-12T08:19:37;5.63;;;5.13;;
40955;SDS011;26687;48.254;11.454;2022-11-12T08:22:37;13.77;;;5.55;;
40955;SDS011;26687;48.254;11.454;2022-11-12T08:25:37;18.57;;;6.50;;
40955;SDS011;26687;48.254;11.454;2022-11-12T08:28:38;8.20;;;6.85;;
40955;SDS011;26687;48.254;11.454;2022-11-12T08:31:38;7.22;;;6.63;;
40955;SDS011;26687;48.254;11.454;2022-11-12T08:34:38;7.15;;;6.45;;
40955;SDS011;26687;48.254;11.454;2022-11-12T08:37:40;6.13;;;5.72;;
40955;SDS011;26687;48.254;11.454;2022-11-12T08:40:40;6.90;;;6.20;;
40955;SDS011;26687;48.254;11.454;2022-11-12T08:43:40;6.97;;;6.38;;
40955;SDS011;26687;48.254;11.454;2022-11-12T08:46:41;18.38;;;7.20;;
40955;SDS011;26687;48.254;11.454;2022-11-12T08:49:41;13.53;;;7.07;;
40955;SDS011;26687;48.254;11.454;2022-11-12T08:52:41;12.60;;;9.55;;
40955;SDS011;26687;48.254;11.454;2022-11-12T08:55:41;8.50;;;7.20;;
40955;SDS011;26687;48.254;11.454;2022-11-12T08:58:42;7.40;;;6.72;;
40955;SDS011;26687;48.254;11.454;2022-11-12T09:01:42;6.70;;;6.10;;
40955;SDS011;26687;48.254;11.454;2022-11-12T09:04:42;7.27;;;6.27;;
40955;SDS011;26687;48.254;11.454;2022-11-12T09:07:43;6.40;;;5.78;;
40955;SDS011;26687;48.254;11.454;2022-11-12T09:10:43;7.30;;;6.18;;
40955;SDS011;26687;48.254;11.454;2022-11-12T09:13:43;6.72;;;6.22;;
40955;SDS011;26687;48.254;11.454;2022-11-12T09:16:44;7.37;;;6.20;;
40955;SDS011;26687;48.254;11.454;2022-11-12T09:19:44;7.53;;;6.50;;
40955;SDS011;26687;48.254;11.454;2022-11-12T09:22:44;6.68;;;6.00;;
40955;SDS011;26687;48.254;11.454;2022-11-12T09:25:44;7.82;;;6.45;;
40955;SDS011;26687;48.254;11.454;2022-11-12T09:28:44;7.70;;;6.10;;
40955;SDS011;26687;48.254;11.454;2022-11-12T09:31:45;7.32;;;6.60;;
40955;SDS011;26687;48.254;11.454;2022-11-12T09:34:45;7.18;;;6.55;;
40955;SDS011;26687;48.254;11.454;2022-11-12T09:37:46;7.45;;;6.20;;
40955;SDS011;26687;48.254;11.454;2022-11-12T09:40:47;6.43;;;5.90;;
40955;SDS011;26687;48.254;11.454;2022-11-12T09:43:53;6.88;;;6.32;;
40955;SDS011;26687;48.254;11.454;2022-11-12T09:53:13;7.32;;;6.72;;
40955;SDS011;26687;48.254;11.454;2022-11-12T09:56:15;8.63;;;7.82;;
40955;SDS011;26687;48.254;11.454;2022-11-12T09:59:17;9.07;;;8.27;;
40955;SDS011;26687;48.254;11.454;2022-11-12T10:05:48;7.78;;;6.63;;
40955;SDS011;26687;48.254;11.454;2022-11-12T10:09:04;7.05;;;6.35;;
40955;SDS011;26687;48.254;11.454;2022-11-12T10:15:36;7.53;;;6.82;;
40955;SDS011;26687;48.254;11.454;2022-11-12T10:25:15;11.80;;;6.28;;
40955;SDS011;26687;48.254;11.454;2022-11-12T10:28:49;6.75;;;6.15;;
40955;SDS011;26687;48.254;11.454;2022-11-12T10:31:42;6.97;;;6.28;;
40955;SDS011;26687;48.254;11.454;2022-11-12T10:34:42;7.67;;;7.07;;
40955;SDS011;26687;48.254;11.454;2022-11-12T10:40:46;8.45;;;6.80;;
40955;SDS011;26687;48.254;11.454;2022-11-12T10:44:05;7.72;;;7.03;;
40955;SDS011;26687;48.254;11.454;2022-11-12T10:47:25;8.63;;;7.10;;
40955;SDS011;26687;48.254;11.454;2022-11-12T10:53:33;8.07;;;7.38;;
40955;SDS011;26687;48.254;11.454;2022-11-12T10:56:34;9.20;;;7.80;;
40955;SDS011;26687;48.254;11.454;2022-11-12T10:59:34;8.95;;;8.10;;
40955;SDS011;26687;48.254;11.454;2022-11-12T11:02:34;7.93;;;7.05;;
40955;SDS011;26687;48.254;11.454;2022-11-12T11:11:35;8.57;;;7.88;;
40955;SDS011;26687;48.254;11.454;2022-11-12T11:14:36;7.68;;;7.07;;
40955;SDS011;26687;48.254;11.454;2022-11-12T11:17:39;7.82;;;7.20;;
40955;SDS011;26687;48.254;11.454;2022-11-12T11:20:42;7.80;;;7.20;;
40955;SDS011;26687;48.254;11.454;2022-11-12T11:23:48;7.88;;;7.20;;
40955;SDS011;26687;48.254;11.454;2022-11-12T11:36:23;8.45;;;7.70;;
40955;SDS011;26687;48.254;11.454;2022-11-12T11:42:46;7.95;;;7.25;;
40955;SDS011;26687;48.254;11.454;2022-11-12T11:45:55;6.90;;;6.40;;
40955;SDS011;26687;48.254;11.454;2022-11-12T11:58:18;7.88;;;7.28;;
40955;SDS011;26687;48.254;11.454;2022-11-12T12:07:45;6.67;;;6.17;;
40955;SDS011;26687;48.254;11.454;2022-11-12T12:11:01;6.85;;;6.35;;
40955;SDS011;26687;48.254;11.454;2022-11-12T12:14:23;7.50;;;6.90;;
40955;SDS011;26687;48.254;11.454;2022-11-12T12:20:40;8.10;;;7.40;;
40955;SDS011;26687;48.254;11.454;2022-11-12T12:26:48;9.10;;;8.40;;
40955;SDS011;26687;48.254;11.454;2022-11-12T12:29:56;8.43;;;7.72;;
40955;SDS011;26687;48.254;11.454;2022-11-12T12:33:01;8.60;;;7.90;;
40955;SDS011;26687;48.254;11.454;2022-11-12T12:39:16;8.88;;;8.18;;
40955;SDS011;26687;48.254;11.454;2022-11-12T12:42:19;8.52;;;7.82;;
40955;SDS011;26687;48.254;11.454;2022-11-12T12:48:28;8.50;;;7.70;;
40955;SDS011;26687;48.254;11.454;2022-11-12T12:51:29;9.52;;;8.63;;
40955;SDS011;26687;48.254;11.454;2022-11-12T12:57:37;9.00;;;8.30;;
40955;SDS011;26687;48.254;11.454;2022-11-12T13:00:38;8.55;;;7.85;;
40955;SDS011;26687;48.254;11.454;2022-11-12T13:09:46;7.88;;;7.22;;
40955;SDS011;26687;48.254;11.454;2022-11-12T13:16:05;22.73;;;14.85;;
40955;SDS011;26687;48.254;11.454;2022-11-12T13:19:06;8.27;;;7.57;;
40955;SDS011;26687;48.254;11.454;2022-11-12T13:28:16;7.65;;;7.05;;
40955;SDS011;26687;48.254;11.454;2022-11-12T13:31:23;7.25;;;6.57;;
40955;SDS011;26687;48.254;11.454;2022-11-12T13:34:26;8.57;;;7.78;;
40955;SDS011;26687;48.254;11.454;2022-11-12T13:37:29;7.57;;;6.97;;
40955;SDS011;26687;48.254;11.454;2022-11-12T13:46:32;8.07;;;7.47;;
40955;SDS011;26687;48.254;11.454;2022-11-12T13:49:32;7.78;;;7.18;;
40955;SDS011;26687;48.254;11.454;2022-11-12T13:52:34;7.05;;;6.45;;
40955;SDS011;26687;48.254;11.454;2022-11-12T13:55:34;7.70;;;7.10;;
40955;SDS011;26687;48.254;11.454;2022-11-12T13:58:35;9.70;;;9.00;;
40955;SDS011;26687;48.254;11.454;2022-11-12T14:01:35;9.93;;;9.15;;
40955;SDS011;26687;48.254;11.454;2022-11-12T14:04:35;10.35;;;9.38;;
40955;SDS011;26687;48.254;11.454;2022-11-12T14:20:19;11.05;;;10.15;;
40955;SDS011;26687;48.254;11.454;2022-11-12T14:23:23;10.70;;;9.75;;
40955;SDS011;26687;48.254;11.454;2022-11-12T14:29:33;11.10;;;10.27;;
40955;SDS011;26687;48.254;11.454;2022-11-12T14:32:34;9.98;;;9.15;;
40955;SDS011;26687;48.254;11.454;2022-11-12T14:35:36;10.27;;;9.48;;
40955;SDS011;26687;48.254;11.454;2022-11-12T14:38:41;9.45;;;8.65;;
40955;SDS011;26687;48.254;11.454;2022-11-12T14:41:42;13.02;;;11.82;;
40955;SDS011;26687;48.254;11.454;2022-11-12T14:44:44;10.40;;;9.43;;
40955;SDS011;26687;48.254;11.454;2022-11-12T14:47:45;10.60;;;9.77;;
40955;SDS011;26687;48.254;11.454;2022-11-12T14:50:47;11.18;;;10.32;;
40955;SDS011;26687;48.254;11.454;2022-11-12T14:53:52;14.23;;;13.03;;
40955;SDS011;26687;48.254;11.454;2022-11-12T14:56:53;25.55;;;21.92;;
40955;SDS011;26687;48.254;11.454;2022-11-12T14:59:54;12.57;;;11.35;;
40955;SDS011;26687;48.254;11.454;2022-11-12T15:02:54;20.67;;;18.88;;
40955;SDS011;26687;48.254;11.454;2022-11-12T15:05:56;14.45;;;13.25;;
40955;SDS011;26687;48.254;11.454;2022-11-12T15:08:57;12.65;;;11.52;;
40955;SDS011;26687;48.254;11.454;2022-11-12T15:11:58;14.32;;;13.20;;
40955;SDS011;26687;48.254;11.454;2022-11-12T15:15:06;11.85;;;10.85;;
40955;SDS011;26687;48.254;11.454;2022-11-12T15:18:13;15.25;;;9.75;;
40955;SDS011;26687;48.254;11.454;2022-11-12T15:21:19;35.55;;;10.93;;
40955;SDS011;26687;48.254;11.454;2022-11-12T15:30:31;14.00;;;10.70;;
40955;SDS011;26687;48.254;11.454;2022-11-12T15:33:32;16.48;;;12.75;;
40955;SDS011;26687;48.254;11.454;2022-11-12T15:36:32;20.40;;;11.40;;
40955;SDS011;26687;48.254;11.454;2022-11-12T15:39:33;13.30;;;11.55;;
40955;SDS011;26687;48.254;11.454;2022-11-12T15:42:38;28.52;;;11.30;;
40955;SDS011;26687;48.254;11.454;2022-11-12T15:45:39;12.13;;;11.02;;
40955;SDS011;26687;48.254;11.454;2022-11-12T15:48:39;24.10;;;11.23;;
40955;SDS011;26687;48.254;11.454;2022-11-12T15:51:39;32.83;;;13.50;;
40955;SDS011;26687;48.254;11.454;2022-11-12T15:54:39;58.28;;;15.40;;
40955;SDS011;26687;48.254;11.454;2022-11-12T15:57:40;14.60;;;13.10;;
40955;SDS011;26687;48.254;11.454;2022-11-12T16:00:41;63.72;;;13.68;;
40955;SDS011;26687;48.254;11.454;2022-11-12T16:03:41;32.53;;;13.30;;
40955;SDS011;26687;48.254;11.454;2022-11-12T16:06:42;26.73;;;12.65;;
40955;SDS011;26687;48.254;11.454;2022-11-12T16:09:42;20.98;;;12.98;;
40955;SDS011;26687;48.254;11.454;2022-11-12T16:12:42;31.48;;;12.88;;
40955;SDS011;26687;48.254;11.454;2022-11-12T16:15:43;34.00;;;15.20;;
40955;SDS011;26687;48.254;11.454;2022-11-12T16:18:43;34.80;;;15.38;;
40955;SDS011;26687;48.254;11.454;2022-11-12T16:21:43;22.38;;;18.17;;
40955;SDS011;26687;48.254;11.454;2022-11-12T16:24:44;47.40;;;19.10;;
40955;SDS011;26687;48.254;11.454;2022-11-12T16:27:44;51.92;;;18.27;;
40955;SDS011;26687;48.254;11.454;2022-11-12T16:30:45;33.25;;;20.27;;
40955;SDS011;26687;48.254;11.454;2022-11-12T16:33:45;72.00;;;20.55;;
40955;SDS011;26687;48.254;11.454;2022-11-12T16:36:45;47.53;;;22.10;;
40955;SDS011;26687;48.254;11.454;2022-11-12T16:39:46;54.72;;;21.77;;
40955;SDS011;26687;48.254;11.454;2022-11-12T16:42:46;49.65;;;22.42;;
40955;SDS011;26687;48.254;11.454;2022-11-12T16:45:46;41.90;;;23.27;;
40955;SDS011;26687;48.254;11.454;2022-11-12T16:48:46;65.40;;;22.42;;
40955;SDS011;26687;48.254;11.454;2022-11-12T16:51:46;45.80;;;25.57;;
40955;SDS011;26687;48.254;11.454;2022-11-12T16:54:48;71.90;;;24.88;;
40955;SDS011;26687;48.254;11.454;2022-11-12T16:57:48;50.60;;;24.52;;
40955;SDS011;26687;48.254;11.454;2022-11-12T17:00:49;57.07;;;24.10;;
40955;SDS011;26687;48.254;11.454;2022-11-12T17:03:49;69.95;;;22.63;;
40955;SDS011;26687;48.254;11.454;2022-11-12T17:06:49;45.85;;;21.80;;
40955;SDS011;26687;48.254;11.454;2022-11-12T17:09:50;47.88;;;22.58;;
40955;SDS011;26687;48.254;11.454;2022-11-12T17:12:51;43.05;;;23.20;;
40955;SDS011;26687;48.254;11.454;2022-11-12T17:15:55;89.60;;;21.83;;
40955;SDS011;26687;48.254;11.454;2022-11-12T17:18:56;52.25;;;20.20;;
40955;SDS011;26687;48.254;11.454;2022-11-12T17:21:56;43.22;;;18.40;;
40955;SDS011;26687;48.254;11.454;2022-11-12T17:24:56;33.75;;;21.10;;
40955;SDS011;26687;48.254;11.454;2022-11-12T17:27:57;39.23;;;16.20;;
40955;SDS011;26687;48.254;11.454;2022-11-12T17:31:10;33.97;;;16.27;;
40955;SDS011;26687;48.254;11.454;2022-11-12T17:34:10;46.33;;;16.77;;
40955;SDS011;26687;48.254;11.454;2022-11-12T17:37:12;32.72;;;17.45;;
40955;SDS011;26687;48.254;11.454;2022-11-12T17:40:12;35.42;;;16.85;;
40955;SDS011;26687;48.254;11.454;2022-11-12T17:43:12;25.03;;;15.30;;
40955;SDS011;26687;48.254;11.454;2022-11-12T17:46:13;22.77;;;14.13;;
40955;SDS011;26687;48.254;11.454;2022-11-12T17:49:16;24.75;;;13.80;;
40955;SDS011;26687;48.254;11.454;2022-11-12T17:52:16;20.80;;;14.50;;
40955;SDS011;26687;48.254;11.454;2022-11-12T17:55:16;25.03;;;13.30;;
40955;SDS011;26687;48.254;11.454;2022-11-12T17:58:16;20.85;;;14.25;;
40955;SDS011;26687;48.254;11.454;2022-11-12T18:01:21;15.88;;;14.27;;
40955;SDS011;26687;48.254;11.454;2022-11-12T18:04:21;19.33;;;13.98;;
40955;SDS011;26687;48.254;11.454;2022-11-12T18:07:21;21.90;;;14.07;;
40955;SDS011;26687;48.254;11.454;2022-11-12T18:10:22;25.85;;;14.05;;
40955;SDS011;26687;48.254;11.454;2022-11-12T18:13:22;24.30;;;13.30;;
40955;SDS011;26687;48.254;11.454;2022-11-12T18:16:26;26.57;;;13.50;;
40955;SDS011;26687;48.254;11.454;2022-11-12T18:19:26;24.80;;;12.85;;
40955;SDS011;26687;48.254;11.454;2022-11-12T18:22:26;30.30;;;12.40;;
40955;SDS011;26687;48.254;11.454;2022-11-12T18:25:27;24.35;;;12.68;;
40955;SDS011;26687;48.254;11.454;2022-11-12T18:28:27;22.93;;;11.50;;
40955;SDS011;26687;48.254;11.454;2022-11-12T18:31:28;21.92;;;10.50;;
40955;SDS011;26687;48.254;11.454;2022-11-12T18:34:28;51.63;;;35.77;;
40955;SDS011;26687;48.254;11.454;2022-11-12T18:37:28;19.60;;;11.32;;
40955;SDS011;26687;48.254;11.454;2022-11-12T18:40:28;10.90;;;9.80;;
40955;SDS011;26687;48.254;11.454;2022-11-12T18:43:29;30.90;;;9.75;;
40955;SDS011;26687;48.254;11.454;2022-11-12T18:46:29;21.87;;;9.80;;
40955;SDS011;26687;48.254;11.454;2022-11-12T18:49:29;16.87;;;9.50;;
40955;SDS011;26687;48.254;11.454;2022-11-12T18:52:29;10.07;;;9.13;;
40955;SDS011;26687;48.254;11.454;2022-11-12T18:55:30;10.57;;;8.85;;
40955;SDS011;26687;48.254;11.454;2022-11-12T18:58:30;27.58;;;8.43;;
40955;SDS011;26687;48.254;11.454;2022-11-12T19:01:30;33.87;;;8.37;;
40955;SDS011;26687;48.254;11.454;2022-11-12T19:04:30;16.48;;;8.77;;
40955;SDS011;26687;48.254;11.454;2022-11-12T19:07:31;18.13;;;8.50;;
40955;SDS011;26687;48.254;11.454;2022-11-12T19:10:31;21.73;;;8.93;;
40955;SDS011;26687;48.254;11.454;2022-11-12T19:13:31;16.67;;;8.60;;
40955;SDS011;26687;48.254;11.454;2022-11-12T19:16:31;9.15;;;8.00;;
40955;SDS011;26687;48.254;11.454;2022-11-12T19:19:31;18.80;;;8.90;;
40955;SDS011;26687;48.254;11.454;2022-11-12T19:22:32;18.87;;;9.47;;
40955;SDS011;26687;48.254;11.454;2022-11-12T19:25:35;10.07;;;8.23;;
40955;SDS011;26687;48.254;11.454;2022-11-12T19:28:35;18.85;;;8.52;;
40955;SDS011;26687;48.254;11.454;2022-11-12T19:31:35;10.67;;;9.60;;
40955;SDS011;26687;48.254;11.454;2022-11-12T19:34:35;15.82;;;10.50;;
40955;SDS011;26687;48.254;11.454;2022-11-12T19:37:36;27.45;;;9.93;;
40955;SDS011;26687;48.254;11.454;2022-11-12T19:40:36;14.57;;;9.45;;
40955;SDS011;26687;48.254;11.454;2022-11-12T19:43:36;12.57;;;10.02;;
40955;SDS011;26687;48.254;11.454;2022-11-12T19:46:38;16.55;;;10.20;;
40955;SDS011;26687;48.254;11.454;2022-11-12T19:49:38;40.53;;;9.63;;
40955;SDS011;26687;48.254;11.454;2022-11-12T19:52:38;10.50;;;9.40;;